UAE30Y OMDB-CYYZ
Flight info
| Callsign | UAE30Y |
|---|---|
| Flight time | N/A |
| Altitude | 30000 |
| Route | ANVIX DCT GIDIS G783 ELUDA DCT PEKEM DCT MUXIT DCT SITER DCT OTALI DCT KIA DCT TOTAD DCT TAMRO DCT PAXAN DCT GADLI DCT OVANO L768 FIRAS R655 CAK UR655 BALMA L620 MUT UL620 KFK UM855 BKZ UQ26 TUDBU Q26 UPAMA DCT INVED DCT SOPRO DCT SUBEN Q162 SPESA DCT BOMBI DCT ADKUV DCT ASDAK T880 BATTY L608 DENUT L610 KOPUL Q60 OKSAW DCT LIPGO DCT REVNU DCT MOGLO DCT PIKIL/M085F300 DCT 5720N DCT H5730 DCT 5740N DCT 5650N DCT JANJO/N0493F300 N714B YBC DCT POLTY |
| Aircraft | B77W/H-SDE1E2E3FGHIJ2J3J4J5M1RWXY/LB1D1 |
Departure
| Time | 2026-04-25 08:32 |
|---|---|
| Airport | Dubai International Airport (OMDB) |
Arrival
| Time | N/A |
|---|---|
| Airport | Toronto Pearson International Airport (CYYZ) |
| Time | Latitude | Longitude | Altitude | Speed | Heading |
|---|---|---|---|---|---|
| 2026-04-25 07:47 | 25.25061 | 55.35989 | 30 ft | 0 kts | 211° |
| 2026-04-25 08:18 | 25.25079 | 55.36001 | 31 ft | 4 kts | 211° |
| 2026-04-25 08:19 | 25.25101 | 55.36017 | 31 ft | 4 kts | 225° |
| 2026-04-25 08:19 | 25.25117 | 55.36041 | 31 ft | 4 kts | 250° |
| 2026-04-25 08:19 | 25.25121 | 55.36069 | 31 ft | 4 kts | 285° |
| 2026-04-25 08:19 | 25.25117 | 55.36081 | 31 ft | 3 kts | 302° |
| 2026-04-25 08:22 | 25.25127 | 55.36063 | 31 ft | 10 kts | 302° |
| 2026-04-25 08:22 | 25.25183 | 55.35964 | 29 ft | 18 kts | 302° |
| 2026-04-25 08:23 | 25.25257 | 55.35834 | 31 ft | 22 kts | 302° |
| 2026-04-25 08:23 | 25.25341 | 55.35683 | 29 ft | 25 kts | 301° |
| 2026-04-25 08:23 | 25.25437 | 55.35513 | 29 ft | 27 kts | 302° |
| 2026-04-25 08:23 | 25.25540 | 55.35329 | 29 ft | 28 kts | 302° |
| 2026-04-25 08:24 | 25.25626 | 55.35179 | 31 ft | 16 kts | 309° |
| 2026-04-25 08:24 | 25.25706 | 55.35173 | 30 ft | 8 kts | 28° |
| 2026-04-25 08:24 | 25.25752 | 55.35202 | 28 ft | 8 kts | 30° |
| 2026-04-25 08:24 | 25.25802 | 55.35235 | 30 ft | 12 kts | 32° |
| 2026-04-25 08:25 | 25.25926 | 55.35319 | 30 ft | 27 kts | 31° |
| 2026-04-25 08:25 | 25.26008 | 55.35487 | 26 ft | 27 kts | 99° |
| 2026-04-25 08:25 | 25.25925 | 55.35670 | 30 ft | 27 kts | 122° |
| 2026-04-25 08:25 | 25.25825 | 55.35847 | 27 ft | 27 kts | 122° |
| 2026-04-25 08:26 | 25.25726 | 55.36024 | 27 ft | 27 kts | 122° |
| 2026-04-25 08:26 | 25.25627 | 55.36201 | 27 ft | 27 kts | 122° |
| 2026-04-25 08:26 | 25.25561 | 55.36317 | 27 ft | 27 kts | 122° |
| 2026-04-25 08:26 | 25.25461 | 55.36495 | 27 ft | 27 kts | 121° |
| 2026-04-25 08:27 | 25.25362 | 55.36671 | 29 ft | 27 kts | 122° |
| 2026-04-25 08:27 | 25.25215 | 55.36933 | 27 ft | 33 kts | 122° |
| 2026-04-25 08:27 | 25.25131 | 55.37081 | 28 ft | 33 kts | 122° |
| 2026-04-25 08:27 | 25.25016 | 55.37287 | 28 ft | 30 kts | 122° |
| 2026-04-25 08:28 | 25.24907 | 55.37480 | 28 ft | 30 kts | 122° |
| 2026-04-25 08:28 | 25.24796 | 55.37676 | 27 ft | 30 kts | 122° |
| 2026-04-25 08:28 | 25.24704 | 55.37840 | 27 ft | 22 kts | 123° |
| 2026-04-25 08:28 | 25.24671 | 55.37941 | 27 ft | 13 kts | 72° |
| 2026-04-25 08:29 | 25.24741 | 55.38007 | 29 ft | 13 kts | 33° |
| 2026-04-25 08:29 | 25.24802 | 55.38025 | 30 ft | 9 kts | 333° |
| 2026-04-25 08:29 | 25.24823 | 55.37994 | 30 ft | 0 kts | 302° |
| 2026-04-25 08:31 | 25.24853 | 55.37941 | 30 ft | 20 kts | 302° |
| 2026-04-25 08:31 | 25.25034 | 55.37616 | 31 ft | 85 kts | 301° |
| 2026-04-25 08:31 | 25.25467 | 55.36835 | 29 ft | 151 kts | 301° |
| 2026-04-25 08:31 | 25.26121 | 55.35658 | 33 ft | 203 kts | 301° |
| 2026-04-25 08:32 | 25.26857 | 55.34295 | 427 ft | 207 kts | 301° |
| 2026-04-25 08:32 | 25.27584 | 55.32934 | 998 ft | 207 kts | 301° |
| 2026-04-25 08:32 | 25.28336 | 55.31553 | 1572 ft | 213 kts | 302° |
| 2026-04-25 08:32 | 25.29092 | 55.30190 | 2221 ft | 200 kts | 294° |
| 2026-04-25 08:33 | 25.29199 | 55.28693 | 2611 ft | 202 kts | 252° |
| 2026-04-25 08:33 | 25.28617 | 55.27269 | 2871 ft | 203 kts | 247° |
| 2026-04-25 08:33 | 25.28030 | 55.25881 | 3248 ft | 204 kts | 246° |
| 2026-04-25 08:33 | 25.27429 | 55.24456 | 3614 ft | 204 kts | 246° |
| 2026-04-25 08:34 | 25.26823 | 55.23031 | 3937 ft | 206 kts | 246° |
| 2026-04-25 08:34 | 25.26213 | 55.21598 | 4241 ft | 207 kts | 246° |
| 2026-04-25 08:34 | 25.25576 | 55.20099 | 4369 ft | 223 kts | 246° |
| 2026-04-25 08:34 | 25.24898 | 55.18506 | 4610 ft | 233 kts | 245° |
| 2026-04-25 08:35 | 25.23864 | 55.17094 | 4842 ft | 245 kts | 212° |
| 2026-04-25 08:35 | 25.22221 | 55.16602 | 5115 ft | 257 kts | 179° |
| 2026-04-25 08:35 | 25.20402 | 55.16768 | 5405 ft | 265 kts | 173° |
| 2026-04-25 08:35 | 25.18648 | 55.17418 | 5712 ft | 272 kts | 142° |
| 2026-04-25 08:36 | 25.17439 | 55.19047 | 5973 ft | 279 kts | 115° |
| 2026-04-25 08:36 | 25.16578 | 55.21009 | 6300 ft | 288 kts | 117° |
| 2026-04-25 08:36 | 25.15659 | 55.22978 | 6875 ft | 291 kts | 118° |
| 2026-04-25 08:36 | 25.14714 | 55.24962 | 7280 ft | 299 kts | 118° |
| 2026-04-25 08:37 | 25.13716 | 55.27046 | 7549 ft | 317 kts | 118° |
| 2026-04-25 08:37 | 25.12652 | 55.29267 | 7708 ft | 337 kts | 119° |
| 2026-04-25 08:37 | 25.11520 | 55.31623 | 7864 ft | 358 kts | 119° |
| 2026-04-25 08:37 | 25.10343 | 55.34108 | 8172 ft | 372 kts | 117° |
| 2026-04-25 08:38 | 25.09256 | 55.36725 | 8751 ft | 378 kts | 115° |
| 2026-04-25 08:38 | 25.08184 | 55.39399 | 9405 ft | 381 kts | 115° |
| 2026-04-25 08:38 | 25.07102 | 55.42074 | 10107 ft | 383 kts | 115° |
| 2026-04-25 08:38 | 25.06050 | 55.44782 | 10740 ft | 386 kts | 114° |
| 2026-04-25 08:39 | 25.05011 | 55.47518 | 11346 ft | 389 kts | 114° |
| 2026-04-25 08:39 | 25.03958 | 55.50278 | 11963 ft | 392 kts | 114° |
| 2026-04-25 08:39 | 25.02890 | 55.53055 | 12636 ft | 393 kts | 114° |
| 2026-04-25 08:39 | 25.01802 | 55.55841 | 13265 ft | 395 kts | 116° |
| 2026-04-25 08:40 | 25.00512 | 55.58487 | 13825 ft | 398 kts | 122° |
| 2026-04-25 08:40 | 24.99040 | 55.61077 | 14359 ft | 400 kts | 123° |
| 2026-04-25 08:40 | 24.97543 | 55.63681 | 14869 ft | 403 kts | 123° |
| 2026-04-25 08:40 | 24.96083 | 55.66312 | 15089 ft | 404 kts | 122° |
| 2026-04-25 08:41 | 24.94634 | 55.68982 | 15575 ft | 408 kts | 122° |
| 2026-04-25 08:41 | 24.93119 | 55.71635 | 16107 ft | 409 kts | 126° |
| 2026-04-25 08:41 | 24.91441 | 55.74184 | 16657 ft | 411 kts | 128° |
| 2026-04-25 08:41 | 24.89706 | 55.76702 | 17174 ft | 414 kts | 129° |
| 2026-04-25 08:42 | 24.87964 | 55.79249 | 17677 ft | 417 kts | 128° |
| 2026-04-25 08:42 | 24.86232 | 55.81830 | 18170 ft | 421 kts | 128° |
| 2026-04-25 08:42 | 24.84498 | 55.84443 | 18628 ft | 423 kts | 128° |
| 2026-04-25 08:42 | 24.82751 | 55.87064 | 19051 ft | 426 kts | 128° |
| 2026-04-25 08:43 | 24.80971 | 55.89694 | 19395 ft | 429 kts | 130° |
| 2026-04-25 08:43 | 24.78868 | 55.91957 | 19561 ft | 431 kts | 149° |
| 2026-04-25 08:43 | 24.76143 | 55.93316 | 19880 ft | 431 kts | 166° |
| 2026-04-25 08:43 | 24.73179 | 55.93806 | 20330 ft | 430 kts | 181° |
| 2026-04-25 08:44 | 24.70186 | 55.93672 | 20753 ft | 432 kts | 185° |
| 2026-04-25 08:44 | 24.67162 | 55.93511 | 21091 ft | 437 kts | 184° |
| 2026-04-25 08:44 | 24.64108 | 55.93390 | 21451 ft | 438 kts | 186° |
| 2026-04-25 08:44 | 24.61097 | 55.92825 | 21722 ft | 440 kts | 200° |
| 2026-04-25 08:45 | 24.58296 | 55.91468 | 22073 ft | 441 kts | 212° |
| 2026-04-25 08:45 | 24.55828 | 55.89490 | 22490 ft | 437 kts | 223° |
| 2026-04-25 08:45 | 24.53570 | 55.87233 | 22826 ft | 441 kts | 224° |
| 2026-04-25 08:45 | 24.51285 | 55.84972 | 23226 ft | 444 kts | 224° |
| 2026-04-25 08:46 | 24.48975 | 55.82716 | 23620 ft | 445 kts | 224° |
| 2026-04-25 08:46 | 24.46676 | 55.80494 | 23973 ft | 447 kts | 223° |
| 2026-04-25 08:46 | 24.44329 | 55.78238 | 24304 ft | 449 kts | 223° |